createdAt,value
2018-04-13T00:01:21.303Z,35.87
2018-04-13T00:03:48.251Z,35.87
2018-04-13T00:06:15.280Z,35.13
2018-04-13T00:08:41.523Z,35.60
2018-04-13T00:11:08.404Z,38.07
2018-04-13T00:13:34.572Z,35.37
2018-04-13T00:16:00.792Z,36.50
2018-04-13T00:18:26.947Z,35.70
2018-04-13T00:20:53.927Z,39.10
2018-04-13T00:23:20.131Z,37.63
2018-04-13T00:25:47.144Z,36.57
2018-04-13T00:28:13.360Z,36.40
2018-04-13T00:30:39.575Z,35.30
2018-04-13T00:33:05.735Z,36.00
2018-04-13T00:35:31.976Z,37.00
2018-04-13T00:37:58.119Z,37.50
2018-04-13T00:40:25.072Z,37.97
2018-04-13T00:42:52.487Z,36.33
2018-04-13T00:45:18.691Z,38.63
2018-04-13T00:47:44.827Z,38.07
2018-04-13T00:50:10.996Z,36.77
2018-04-13T00:52:37.919Z,38.10
2018-04-13T00:55:04.068Z,37.13
2018-04-13T00:57:31.036Z,37.97
2018-04-13T00:59:59.216Z,34.50
2018-04-13T01:02:25.348Z,35.70
2018-04-13T01:04:51.519Z,34.93
2018-04-13T01:07:17.779Z,34.07
2018-04-13T01:09:43.971Z,33.53
2018-04-13T01:12:10.123Z,32.23
2018-04-13T01:14:37.099Z,34.43
2018-04-13T01:17:03.345Z,33.07
2018-04-13T01:19:29.567Z,34.83
2018-04-13T01:21:55.700Z,34.70
2018-04-13T01:24:21.855Z,34.07
2018-04-13T01:26:48.072Z,33.30
2018-04-13T01:29:14.227Z,35.40
2018-04-13T01:31:41.203Z,36.90
2018-04-13T01:34:07.426Z,35.73
2018-04-13T01:36:33.583Z,34.50
2018-04-13T01:38:59.820Z,35.00
2018-04-13T01:41:26.064Z,34.97
2018-04-13T01:43:52.307Z,33.00
2018-04-13T01:46:19.256Z,35.00
2018-04-13T01:48:46.237Z,33.80
2018-04-13T01:51:12.463Z,35.17
2018-04-13T01:53:38.703Z,35.40
2018-04-13T01:56:04.849Z,33.00
2018-04-13T01:58:31.000Z,32.60
2018-04-13T02:00:57.447Z,32.37
2018-04-13T02:03:24.383Z,32.07
2018-04-13T02:05:50.535Z,32.30
2018-04-13T02:08:16.679Z,32.60
2018-04-13T02:10:42.824Z,31.33
2018-04-13T02:13:09.054Z,33.63
2018-04-13T02:15:35.212Z,32.43
2018-04-13T02:18:01.464Z,31.17
2018-04-13T02:20:28.423Z,32.37
2018-04-13T02:22:54.681Z,34.90
2018-04-13T02:25:20.884Z,31.97
2018-04-13T02:27:47.023Z,33.47
2018-04-13T02:30:13.172Z,31.60
2018-04-13T02:32:39.315Z,32.80
2018-04-13T02:35:05.539Z,33.70
2018-04-13T02:37:31.701Z,32.60
2018-04-13T02:39:58.643Z,33.83
2018-04-13T02:42:25.603Z,31.80
2018-04-13T02:44:51.864Z,32.40
2018-04-13T02:47:18.079Z,30.80
2018-04-13T02:49:44.311Z,30.43
2018-04-13T02:52:10.493Z,30.07
2018-04-13T02:54:37.455Z,28.57
2018-04-13T02:57:03.679Z,31.90
2018-04-13T02:59:29.812Z,31.50
2018-04-13T03:01:55.968Z,31.13
2018-04-13T03:04:22.195Z,30.67
2018-04-13T03:06:48.347Z,29.40
2018-04-13T03:09:14.464Z,30.50
2018-04-13T03:11:42.415Z,30.77
2018-04-13T03:14:08.595Z,31.23
2018-04-13T03:16:35.587Z,29.87
2018-04-13T03:19:01.851Z,31.27
2018-04-13T03:21:28.042Z,31.10
2018-04-13T03:23:54.200Z,30.10
2018-04-13T03:26:20.327Z,32.83
2018-04-13T03:28:46.480Z,31.67
2018-04-13T03:31:13.418Z,30.70
2018-04-13T03:33:40.399Z,31.87
2018-04-13T03:36:06.528Z,31.37
2018-04-13T03:38:32.668Z,32.30
2018-04-13T03:40:58.812Z,31.27
2018-04-13T03:43:25.052Z,34.70
2018-04-13T03:45:51.212Z,34.10
2018-04-13T03:48:18.168Z,33.00
2018-04-13T03:50:44.418Z,34.87
2018-04-13T03:53:10.655Z,35.80
2018-04-13T03:55:36.883Z,35.77
2018-04-13T03:58:03.043Z,37.20
2018-04-13T04:00:29.283Z,36.67
2018-04-13T04:02:56.268Z,38.70
2018-04-13T04:05:23.200Z,41.20
2018-04-13T04:07:49.439Z,39.97
2018-04-13T04:10:15.671Z,40.43
2018-04-13T04:12:41.824Z,40.13
2018-04-13T04:15:08.062Z,38.47
2018-04-13T04:17:34.189Z,40.90
2018-04-13T04:20:12.457Z,39.60
2018-04-13T04:22:50.800Z,42.07
2018-04-13T04:28:20.617Z,39.80
2018-04-13T04:30:46.871Z,41.53
2018-04-13T04:33:13.084Z,43.57
2018-04-13T04:35:39.252Z,42.03
2018-04-13T04:38:06.228Z,41.17
2018-04-13T04:40:32.459Z,42.37
2018-04-13T04:42:58.675Z,42.00
2018-04-13T04:45:24.824Z,43.60
2018-04-13T04:47:50.980Z,44.90
2018-04-13T04:50:17.215Z,45.57
2018-04-13T04:52:43.468Z,44.23
2018-04-13T04:55:10.420Z,43.10
2018-04-13T04:57:37.364Z,46.93
2018-04-13T05:00:04.357Z,45.67
2018-04-13T05:02:31.301Z,46.17
2018-04-13T05:04:58.261Z,45.90
2018-04-13T05:07:24.512Z,48.00
2018-04-13T05:09:50.735Z,46.70
2018-04-13T05:12:18.415Z,49.47
2018-04-13T05:14:45.367Z,46.30
2018-04-13T05:17:12.342Z,49.33
2018-04-13T05:19:38.628Z,49.00
2018-04-13T05:22:05.539Z,48.43
2018-04-13T05:24:31.797Z,48.07
2018-04-13T05:26:58.038Z,49.27
2018-04-13T05:29:25.010Z,49.27
2018-04-13T05:31:51.215Z,47.40
2018-04-13T05:34:18.184Z,46.33
2018-04-13T05:36:44.356Z,47.10
2018-04-13T05:39:10.567Z,49.10
2018-04-13T05:41:36.811Z,47.77
2018-04-13T05:44:03.692Z,47.90
2018-04-13T05:46:30.652Z,49.00
2018-04-13T05:48:56.893Z,46.80
2018-04-13T05:51:23.105Z,45.83
2018-04-13T05:53:49.371Z,47.33
2018-04-13T05:56:16.367Z,44.30
2018-04-13T05:58:43.281Z,46.17
2018-04-13T06:01:09.517Z,47.50
2018-04-13T06:03:36.483Z,45.70
2018-04-13T06:06:03.469Z,44.93
2018-04-13T06:08:29.691Z,47.50
2018-04-13T06:10:55.912Z,44.80
2018-04-13T06:13:22.039Z,48.27
2018-04-13T06:15:48.220Z,47.03
2018-04-13T06:18:14.476Z,43.53
2018-04-13T06:20:40.687Z,44.90
2018-04-13T06:23:07.684Z,44.87
2018-04-13T06:25:33.888Z,44.33
2018-04-13T06:28:00.069Z,46.47
2018-04-13T06:30:26.220Z,46.33
2018-04-13T06:32:53.088Z,42.50
2018-04-13T06:35:19.225Z,42.80
2018-04-13T06:37:45.367Z,43.90
2018-04-13T06:40:12.284Z,44.77
2018-04-13T06:42:38.403Z,45.40
2018-04-13T06:45:04.560Z,44.33
2018-04-13T06:47:30.691Z,41.83
2018-04-13T06:49:56.866Z,43.60
2018-04-13T06:52:23.744Z,41.87
2018-04-13T06:54:49.878Z,45.07
2018-04-13T06:57:16.026Z,44.03
2018-04-13T06:59:42.176Z,43.47
2018-04-13T07:02:08.343Z,43.40
2018-04-13T07:04:34.474Z,42.70
2018-04-13T07:07:00.635Z,43.73
2018-04-13T07:09:26.769Z,42.87
2018-04-13T07:11:52.897Z,42.40
2018-04-13T07:14:20.424Z,40.43
2018-04-13T07:16:46.552Z,41.63
2018-04-13T07:19:12.706Z,43.20
2018-04-13T07:21:38.825Z,41.37
2018-04-13T07:24:04.956Z,43.33
2018-04-13T07:26:31.115Z,45.10
2018-04-13T07:28:57.977Z,42.30
2018-04-13T07:31:24.138Z,41.27
2018-04-13T07:33:50.276Z,40.93
2018-04-13T07:36:16.667Z,40.40
2018-04-13T07:38:42.548Z,39.90
2018-04-13T07:41:13.288Z,40.53
2018-04-13T07:43:40.183Z,38.03
2018-04-13T07:46:06.346Z,39.77
2018-04-13T07:48:32.477Z,35.57
2018-04-13T07:50:59.422Z,37.60
2018-04-13T07:53:25.496Z,37.00
2018-04-13T07:55:51.627Z,37.17
2018-04-13T07:58:17.764Z,37.00
2018-04-13T08:00:43.895Z,36.13
2018-04-13T08:03:10.031Z,36.93
2018-04-13T08:05:36.160Z,36.83
2018-04-13T08:08:02.299Z,35.00
2018-04-13T08:10:28.418Z,34.60
2018-04-13T08:12:54.566Z,35.10
2018-04-13T08:15:21.432Z,33.57
2018-04-13T08:17:47.567Z,31.90
2018-04-13T08:20:13.699Z,31.83
2018-04-13T08:22:39.823Z,30.70
2018-04-13T08:25:06.005Z,30.00
2018-04-13T08:27:32.906Z,26.17
2018-04-13T08:29:59.035Z,26.07
2018-04-13T08:32:25.167Z,25.37
2018-04-13T08:34:51.303Z,24.73
2018-04-13T08:37:17.439Z,23.73
2018-04-13T08:39:43.601Z,24.43
2018-04-13T08:42:10.508Z,22.70
2018-04-13T08:44:36.643Z,22.97
2018-04-13T08:47:02.782Z,22.33
2018-04-13T08:49:29.671Z,22.20
2018-04-13T08:51:55.803Z,23.23
2018-04-13T08:54:21.948Z,23.23
2018-04-13T08:56:48.076Z,23.77
2018-04-13T08:59:14.227Z,25.53
2018-04-13T09:01:41.083Z,24.40
2018-04-13T09:04:07.963Z,24.90
2018-04-13T09:06:34.150Z,22.70
2018-04-13T09:09:00.243Z,25.60
2018-04-13T09:11:26.387Z,24.87
2018-04-13T09:13:52.503Z,24.47
2018-04-13T09:16:18.643Z,25.67
2018-04-13T09:18:45.536Z,24.60
2018-04-13T09:21:11.651Z,25.23
2018-04-13T09:23:37.775Z,23.80
2018-04-13T09:26:03.920Z,22.97
2018-04-13T09:28:30.075Z,22.40
2018-04-13T09:30:56.243Z,22.33
2018-04-13T09:33:22.459Z,22.00
2018-04-13T09:35:49.377Z,21.10
2018-04-13T09:38:15.512Z,23.23
2018-04-13T09:40:41.708Z,22.17
2018-04-13T09:43:07.844Z,22.07
2018-04-13T09:45:33.976Z,21.23
2018-04-13T09:48:00.123Z,20.53
2018-04-13T09:50:27.013Z,19.67
2018-04-13T09:52:53.167Z,18.97
2018-04-13T09:55:19.291Z,18.60
2018-04-13T09:57:45.445Z,19.10
2018-04-13T10:00:12.340Z,18.53
2018-04-13T10:02:38.476Z,17.10
2018-04-13T10:05:11.377Z,17.63
2018-04-13T10:07:37.547Z,16.30
2018-04-13T10:10:03.735Z,17.33
2018-04-13T10:12:29.855Z,14.67
2018-04-13T10:14:56.007Z,14.10
2018-04-13T10:17:22.881Z,14.30
2018-04-13T10:19:49.011Z,14.03
2018-04-13T10:22:15.156Z,15.00
2018-04-13T10:24:41.311Z,14.17
2018-04-13T10:27:07.444Z,13.07
2018-04-13T10:29:33.603Z,11.83
2018-04-13T10:31:59.744Z,13.03
2018-04-13T10:34:25.868Z,11.40
2018-04-13T10:36:52.786Z,11.40
2018-04-13T10:39:19.676Z,11.53
2018-04-13T10:41:45.840Z,11.47
2018-04-13T10:44:11.968Z,11.33
2018-04-13T10:46:38.143Z,12.43
2018-04-13T10:49:04.277Z,12.07
2018-04-13T10:51:30.450Z,13.30
2018-04-13T10:53:56.583Z,12.50
2018-04-13T10:56:23.491Z,13.37
2018-04-13T10:58:49.643Z,12.20
2018-04-13T11:01:15.856Z,12.07
2018-04-13T11:03:42.024Z,11.93
2018-04-13T11:06:08.163Z,11.93
2018-04-13T11:08:34.336Z,12.80
2018-04-13T11:11:00.491Z,13.53
2018-04-13T11:13:27.764Z,12.60
2018-04-13T11:15:53.915Z,12.27
2018-04-13T11:18:20.074Z,12.90
2018-04-13T11:20:46.219Z,12.00
2018-04-13T11:23:13.092Z,10.43
2018-04-13T11:25:39.232Z,11.63
2018-04-13T11:28:05.347Z,10.60
2018-04-13T11:30:31.489Z,10.70
2018-04-13T11:32:57.633Z,10.23
2018-04-13T11:35:23.756Z,10.70
2018-04-13T11:37:49.879Z,10.20
2018-04-13T11:40:16.019Z,10.83
2018-04-13T11:42:42.194Z,11.30
2018-04-13T11:45:08.379Z,11.40
2018-04-13T11:47:34.521Z,10.40
2018-04-13T11:50:01.415Z,9.70
2018-04-13T11:52:27.559Z,11.20
2018-04-13T11:54:53.707Z,10.37
2018-04-13T11:57:19.827Z,10.07
2018-04-13T11:59:45.976Z,9.77
2018-04-13T12:02:12.872Z,9.00
2018-04-13T12:04:39.023Z,9.83
2018-04-13T12:07:05.177Z,10.20
2018-04-13T12:09:32.041Z,10.37
2018-04-13T12:11:58.180Z,10.33
2018-04-13T12:14:24.332Z,9.80
2018-04-13T12:16:50.478Z,11.30
2018-04-13T12:19:16.631Z,11.80
2018-04-13T12:21:43.504Z,11.70
2018-04-13T12:24:09.621Z,10.80
2018-04-13T12:26:35.791Z,11.73
2018-04-13T12:29:01.929Z,11.03
2018-04-13T12:31:28.095Z,11.50
2018-04-13T12:33:54.260Z,10.60
2018-04-13T12:36:20.400Z,11.20
2018-04-13T12:38:46.559Z,10.83
2018-04-13T12:41:13.471Z,10.83
2018-04-13T12:43:39.603Z,10.30
2018-04-13T12:46:06.495Z,10.70
2018-04-13T12:48:32.639Z,10.50
2018-04-13T12:50:58.799Z,10.23
2018-04-13T12:53:24.927Z,11.60
2018-04-13T12:55:51.080Z,11.83
2018-04-13T12:58:17.987Z,10.57
2018-04-13T13:00:44.115Z,10.30
2018-04-13T13:03:10.272Z,11.70
2018-04-13T13:05:37.176Z,10.40
2018-04-13T13:08:03.315Z,10.73
2018-04-13T13:10:29.468Z,11.20
2018-04-13T13:12:56.337Z,11.00
2018-04-13T13:15:22.534Z,10.60
2018-04-13T13:17:49.417Z,9.17
2018-04-13T13:20:15.571Z,8.10
2018-04-13T13:22:41.708Z,9.60
2018-04-13T13:25:07.868Z,11.50
2018-04-13T13:27:34.771Z,9.90
2018-04-13T13:30:00.926Z,9.63
2018-04-13T13:32:27.798Z,9.70
2018-04-13T13:34:53.936Z,10.40
2018-04-13T13:37:20.080Z,9.50
2018-04-13T13:39:46.224Z,9.37
2018-04-13T13:42:12.360Z,11.20
2018-04-13T13:44:38.575Z,10.33
2018-04-13T13:47:05.448Z,9.00
2018-04-13T13:49:32.332Z,9.20
2018-04-13T13:51:58.511Z,9.40
2018-04-13T13:54:25.371Z,10.90
2018-04-13T13:56:52.264Z,9.97
2018-04-13T13:59:18.380Z,9.30
2018-04-13T14:01:44.559Z,9.83
2018-04-13T14:04:11.424Z,9.60
2018-04-13T14:06:37.569Z,10.03
2018-04-13T14:09:04.588Z,9.87
2018-04-13T14:11:30.736Z,10.53
2018-04-13T14:13:56.871Z,10.10
2018-04-13T14:16:37.956Z,10.03
2018-04-13T14:19:04.090Z,8.53
2018-04-13T14:21:30.247Z,9.80
2018-04-13T14:23:56.377Z,9.20
2018-04-13T14:26:22.495Z,10.00
2018-04-13T14:28:48.644Z,9.97
2018-04-13T14:31:14.867Z,10.10
2018-04-13T14:33:41.743Z,9.20
2018-04-13T14:36:07.882Z,10.27
2018-04-13T14:38:34.752Z,9.70
2018-04-13T14:41:00.889Z,10.30
2018-04-13T14:43:27.784Z,10.50
2018-04-13T14:45:53.932Z,9.23
2018-04-13T14:48:20.101Z,11.67
2018-04-13T14:50:46.972Z,9.60
2018-04-13T14:53:13.096Z,11.23
2018-04-13T14:55:39.244Z,10.10
2018-04-13T14:58:05.428Z,11.20
2018-04-13T15:00:32.344Z,11.77
2018-04-13T15:02:58.491Z,12.57
2018-04-13T15:05:25.364Z,12.07
2018-04-13T15:07:51.576Z,13.57
2018-04-13T15:10:17.713Z,12.80
2018-04-13T15:12:43.845Z,13.20
2018-04-13T15:15:10.007Z,12.27
2018-04-13T15:17:36.165Z,14.73
2018-04-13T15:20:03.047Z,13.00
2018-04-13T15:22:29.199Z,14.30
2018-04-13T15:24:55.370Z,14.70
2018-04-13T15:27:21.580Z,14.70
2018-04-13T15:29:47.714Z,14.67
2018-04-13T15:32:14.595Z,16.70
2018-04-13T15:34:40.720Z,16.70
2018-04-13T15:37:06.892Z,17.87
2018-04-13T15:39:33.027Z,20.13
2018-04-13T15:41:59.175Z,22.17
2018-04-13T15:44:26.050Z,22.43
2018-04-13T15:46:52.211Z,24.90
2018-04-13T15:49:18.360Z,28.77
2018-04-13T15:51:45.259Z,30.70
2018-04-13T15:54:11.387Z,28.77
2018-04-13T15:56:37.552Z,31.83
2018-04-13T15:59:04.444Z,32.90
2018-04-13T16:01:30.591Z,35.40
2018-04-13T16:03:56.843Z,38.77
2018-04-13T16:06:22.980Z,40.50
2018-04-13T16:08:49.849Z,43.20
2018-04-13T16:11:15.998Z,42.43
2018-04-13T16:13:42.163Z,42.97
2018-04-13T16:16:08.308Z,45.30
2018-04-13T16:18:35.173Z,44.07
2018-04-13T16:21:01.331Z,46.70
2018-04-13T16:23:27.456Z,47.77
2018-04-13T16:25:53.647Z,46.50
2018-04-13T16:28:19.767Z,48.13
2018-04-13T16:30:46.640Z,48.60
2018-04-13T16:33:12.787Z,47.83
2018-04-13T16:35:38.930Z,48.07
2018-04-13T16:38:05.102Z,48.30
2018-04-13T16:40:31.252Z,51.40
2018-04-13T16:42:57.383Z,54.60
2018-04-13T16:45:23.555Z,53.40
2018-04-13T16:47:50.444Z,45.07
2018-04-13T16:50:16.608Z,55.93
2018-04-13T16:52:42.751Z,56.67
2018-04-13T16:55:09.629Z,56.10
2018-04-13T16:57:35.776Z,58.13
2018-04-13T17:00:01.984Z,57.33
2018-04-13T17:02:28.244Z,59.60
2018-04-13T17:04:54.483Z,62.40
2018-04-13T17:07:20.634Z,62.37
2018-04-13T17:09:47.526Z,62.40
2018-04-13T17:12:13.691Z,61.00
2018-04-13T17:14:39.824Z,62.93
2018-04-13T17:17:06.716Z,65.57
2018-04-13T17:19:32.864Z,67.50
2018-04-13T17:21:59.021Z,54.97
2018-04-13T17:24:25.903Z,64.77
2018-04-13T17:26:52.024Z,64.83
2018-04-13T17:29:18.214Z,69.10
2018-04-13T17:31:44.327Z,68.40
2018-04-13T17:34:11.299Z,66.67
2018-04-13T17:36:38.180Z,72.10
2018-04-13T17:39:04.354Z,64.30
2018-04-13T17:41:30.511Z,68.50
2018-04-13T17:43:56.636Z,73.10
2018-04-13T17:46:23.970Z,66.53
2018-04-13T17:48:50.844Z,75.70
2018-04-13T17:51:16.997Z,75.27
2018-04-13T17:53:43.131Z,78.23
2018-04-13T17:56:09.998Z,79.57
2018-04-13T17:58:36.260Z,80.87
2018-04-13T18:01:02.440Z,83.23
2018-04-13T18:03:28.699Z,83.50
2018-04-13T18:05:55.648Z,85.80
2018-04-13T18:08:22.549Z,88.63
2018-04-13T18:10:48.697Z,90.17
2018-04-13T18:13:14.828Z,88.33
2018-04-13T18:15:40.974Z,86.20
2018-04-13T18:18:07.872Z,84.40
2018-04-13T18:20:34.031Z,75.30
2018-04-13T18:23:00.924Z,80.70
2018-04-13T18:25:27.084Z,76.23
2018-04-13T18:27:53.212Z,78.03
2018-04-13T18:30:19.339Z,78.77
2018-04-13T18:32:45.484Z,76.33
2018-04-13T18:35:12.361Z,77.37
2018-04-13T18:37:38.511Z,69.13
2018-04-13T18:40:04.656Z,71.60
2018-04-13T18:42:30.820Z,75.30
2018-04-13T18:44:57.675Z,70.23
2018-04-13T18:47:23.832Z,70.43
2018-04-13T18:49:49.994Z,66.17
2018-04-13T18:52:16.891Z,70.17
2018-04-13T18:54:43.009Z,65.77
2018-04-13T18:57:09.140Z,69.20
2018-04-13T18:59:35.375Z,65.63
2018-04-13T19:02:02.594Z,61.37
2018-04-13T19:04:28.740Z,61.30
2018-04-13T19:06:54.930Z,61.20
2018-04-13T19:09:21.953Z,59.30
2018-04-13T19:11:48.099Z,60.97
2018-04-13T19:14:14.211Z,59.73
2018-04-13T19:16:42.208Z,61.07
2018-04-13T19:19:09.085Z,61.47
2018-04-13T19:21:35.211Z,56.80
2018-04-13T19:24:01.320Z,57.20
2018-04-13T19:26:27.468Z,58.67
2018-04-13T19:28:53.607Z,56.57
2018-04-13T19:31:19.776Z,51.70
2018-04-13T19:33:46.723Z,57.00
2018-04-13T19:36:13.619Z,54.27
2018-04-13T19:38:39.769Z,50.87
2018-04-13T19:41:05.976Z,46.40
2018-04-13T19:43:32.145Z,43.67
2018-04-13T19:45:59.021Z,40.30
2018-04-13T19:48:25.325Z,44.07
2018-04-13T19:50:52.216Z,43.87
2018-04-13T19:53:18.351Z,41.10
2018-04-13T19:55:44.531Z,36.40
2018-04-13T19:58:10.747Z,42.03
2018-04-13T20:00:37.696Z,43.70
2018-04-13T20:03:04.690Z,42.47
2018-04-13T20:05:31.572Z,44.70
2018-04-13T20:07:58.540Z,43.20
2018-04-13T20:10:24.728Z,42.00
2018-04-13T20:12:50.909Z,35.00
2018-04-13T20:15:27.065Z,38.60
2018-04-13T20:17:53.203Z,36.70
2018-04-13T20:20:19.392Z,37.57
2018-04-13T20:22:46.255Z,36.70
2018-04-13T20:25:12.383Z,37.67
2018-04-13T20:27:38.548Z,36.10
2018-04-13T20:30:04.745Z,34.60
2018-04-13T20:32:30.987Z,31.97
2018-04-13T20:34:57.108Z,38.03
2018-04-13T20:37:23.244Z,30.33
2018-04-13T20:39:49.397Z,32.67
2018-04-13T20:42:15.557Z,39.23
2018-04-13T20:44:42.431Z,33.50
2018-04-13T20:47:08.564Z,34.93
2018-04-13T20:49:34.679Z,33.60
2018-04-13T20:52:00.823Z,34.53
2018-04-13T20:54:26.963Z,33.93
2018-04-13T20:56:53.139Z,34.77
2018-04-13T20:59:19.380Z,39.73
2018-04-13T21:01:45.508Z,34.00
2018-04-13T21:04:11.640Z,27.40
2018-04-13T21:06:37.783Z,34.80
2018-04-13T21:09:03.955Z,35.60
2018-04-13T21:11:30.828Z,36.50
2018-04-13T21:13:56.958Z,39.23
2018-04-13T21:16:23.100Z,35.00
2018-04-13T21:18:49.243Z,38.50
2018-04-13T21:21:16.125Z,23.67
2018-04-13T21:23:43.043Z,28.10
2018-04-13T21:26:09.255Z,26.53
2018-04-13T21:28:35.383Z,23.60
2018-04-13T21:31:01.571Z,33.67
2018-04-13T21:33:27.768Z,35.83
2018-04-13T21:35:54.769Z,36.13
2018-04-13T21:38:21.692Z,30.00
2018-04-13T21:40:47.904Z,38.27
2018-04-13T21:43:14.808Z,33.67
2018-04-13T21:45:41.044Z,42.90
2018-04-13T21:48:07.358Z,43.07
2018-04-13T21:50:33.528Z,36.33
2018-04-13T21:53:00.498Z,45.10
2018-04-13T21:55:26.727Z,50.20
2018-04-13T21:57:52.879Z,58.33
2018-04-13T22:00:19.124Z,52.07
2018-04-13T22:02:45.360Z,59.87
2018-04-13T22:05:11.615Z,45.83
2018-04-13T22:07:38.569Z,52.40
2018-04-13T22:10:04.843Z,65.43
2018-04-13T22:12:43.560Z,75.53
2018-04-13T22:15:09.811Z,69.70
2018-04-13T22:17:36.024Z,81.47
2018-04-13T22:20:02.378Z,75.10
2018-04-13T22:22:28.642Z,77.47
2018-04-13T22:24:54.859Z,79.87
2018-04-13T22:27:21.806Z,73.97
2018-04-13T22:29:48.788Z,83.53
2018-04-13T22:32:15.015Z,80.47
2018-04-13T22:34:41.305Z,80.63
2018-04-13T22:37:07.535Z,102.37
2018-04-13T22:39:34.468Z,54.13
2018-04-13T22:42:02.343Z,91.30
2018-04-13T22:44:29.328Z,57.13
2018-04-13T22:46:55.559Z,99.53
2018-04-13T22:49:22.313Z,88.10
2018-04-13T22:51:48.544Z,95.27
2018-04-13T22:54:14.816Z,70.17
2018-04-13T22:56:41.767Z,15.63
2018-04-13T22:59:08.691Z,3.57
2018-04-13T23:01:34.870Z,0.60
2018-04-13T23:04:02.183Z,0.57
2018-04-13T23:06:29.082Z,3.17
2018-04-13T23:08:55.308Z,1.53
2018-04-13T23:11:21.486Z,0.97
2018-04-13T23:13:48.403Z,0.60
2018-04-13T23:16:16.124Z,0.60
2018-04-13T23:18:42.328Z,1.17
2018-04-13T23:21:08.467Z,0.50
2018-04-13T23:23:34.631Z,2.53
2018-04-13T23:26:00.852Z,0.60
2018-04-13T23:28:27.016Z,4.10
2018-04-13T23:30:53.231Z,2.03
2018-04-13T23:33:19.396Z,0.57
2018-04-13T23:35:45.631Z,0.50
2018-04-13T23:38:11.864Z,2.83
2018-04-13T23:40:38.040Z,0.50
2018-04-13T23:43:04.260Z,0.50
2018-04-13T23:45:30.500Z,1.23
2018-04-13T23:47:56.780Z,1.10
2018-04-13T23:50:23.007Z,0.50
2018-04-13T23:52:49.133Z,0.57
2018-04-13T23:55:15.377Z,1.53
2018-04-13T23:57:41.623Z,4.20
